createdAt,value
2024-02-29T00:02:23.824Z,8.43
2024-02-29T00:04:52.862Z,8.17
2024-02-29T00:07:24.560Z,8.40
2024-02-29T00:09:53.809Z,11.00
2024-02-29T00:12:27.346Z,9.07
2024-02-29T00:14:56.196Z,13.47
2024-02-29T00:17:25.284Z,9.00
2024-02-29T00:19:54.037Z,8.70
2024-02-29T00:22:22.809Z,10.63
2024-02-29T00:24:54.009Z,10.53
2024-02-29T00:27:25.577Z,12.33
2024-02-29T00:29:54.588Z,10.90
2024-02-29T00:32:23.842Z,9.13
2024-02-29T00:34:53.219Z,9.27
2024-02-29T00:37:21.939Z,9.80
2024-02-29T00:39:53.622Z,11.97
2024-02-29T00:42:23.748Z,8.80
2024-02-29T00:44:52.636Z,12.80
2024-02-29T00:47:21.624Z,11.57
2024-02-29T00:49:53.044Z,12.53
2024-02-29T00:52:22.390Z,12.00
2024-02-29T00:54:53.983Z,10.33
2024-02-29T00:57:24.473Z,12.53
2024-02-29T00:59:53.649Z,12.53
2024-02-29T01:02:25.028Z,11.07
2024-02-29T01:04:53.911Z,10.37
2024-02-29T01:07:22.798Z,10.43
2024-02-29T01:09:53.835Z,10.00
2024-02-29T01:12:23.968Z,11.03
2024-02-29T01:14:52.955Z,11.80
2024-02-29T01:17:24.115Z,10.10
2024-02-29T01:19:53.109Z,11.90
2024-02-29T01:22:22.184Z,9.87
2024-02-29T01:24:50.956Z,13.77
2024-02-29T01:27:19.943Z,11.07
2024-02-29T01:29:53.044Z,11.13
2024-02-29T01:32:27.031Z,11.07
2024-02-29T01:34:57.539Z,11.37
2024-02-29T01:37:26.321Z,10.40
2024-02-29T01:39:55.653Z,10.20
2024-02-29T01:42:24.437Z,10.67
2024-02-29T01:44:57.084Z,8.67
2024-02-29T01:47:27.401Z,10.90
2024-02-29T01:49:59.291Z,12.10
2024-02-29T01:52:28.886Z,11.00
2024-02-29T01:54:57.765Z,10.00
2024-02-29T01:57:27.813Z,12.20
2024-02-29T01:59:58.299Z,14.50
2024-02-29T02:02:27.380Z,13.17
2024-02-29T02:04:56.785Z,14.93
2024-02-29T02:07:25.833Z,13.50
2024-02-29T02:09:54.794Z,13.50
2024-02-29T02:12:23.576Z,16.77
2024-02-29T02:14:53.069Z,17.00
2024-02-29T02:17:23.794Z,15.50
2024-02-29T02:19:53.587Z,18.43
2024-02-29T02:22:24.183Z,18.17
2024-02-29T02:24:53.416Z,15.17
2024-02-29T02:27:22.582Z,15.87
2024-02-29T02:29:53.759Z,15.60
2024-02-29T02:32:22.749Z,17.50
2024-02-29T02:34:53.613Z,20.47
2024-02-29T02:37:22.797Z,17.23
2024-02-29T02:39:54.399Z,17.63
2024-02-29T02:42:23.488Z,16.87
2024-02-29T02:44:52.578Z,21.03
2024-02-29T02:47:21.609Z,16.33
2024-02-29T02:49:50.559Z,16.80
2024-02-29T02:52:19.654Z,25.53
2024-02-29T02:54:53.388Z,18.67
2024-02-29T02:57:22.257Z,19.20
2024-02-29T02:59:53.322Z,19.70
2024-02-29T03:02:22.460Z,19.13
2024-02-29T03:04:53.557Z,19.93
2024-02-29T03:07:22.664Z,18.47
2024-02-29T03:09:56.984Z,18.47
2024-02-29T03:12:25.867Z,18.27
2024-02-29T03:14:55.134Z,17.57
2024-02-29T03:17:26.530Z,17.67
2024-02-29T03:19:55.708Z,18.33
2024-02-29T03:22:24.398Z,19.67
2024-02-29T03:24:58.243Z,20.33
2024-02-29T03:27:29.108Z,16.87
2024-02-29T03:30:00.208Z,19.43
2024-02-29T03:32:31.404Z,20.97
2024-02-29T03:35:00.433Z,20.70
2024-02-29T03:37:31.765Z,21.07
2024-02-29T03:40:02.228Z,18.37
2024-02-29T03:42:34.041Z,18.90
2024-02-29T03:45:04.094Z,16.53
2024-02-29T03:47:33.013Z,18.77
2024-02-29T03:50:02.034Z,21.70
2024-02-29T03:52:35.775Z,18.03
2024-02-29T03:55:08.159Z,19.33
2024-02-29T03:57:36.931Z,19.37
2024-02-29T04:00:12.594Z,20.07
2024-02-29T04:02:42.082Z,18.97
2024-02-29T04:05:12.885Z,16.00
2024-02-29T04:07:42.899Z,19.63
2024-02-29T04:10:17.095Z,20.23
2024-02-29T04:12:48.337Z,20.07
2024-02-29T04:15:17.520Z,20.53
2024-02-29T04:17:46.440Z,22.07
2024-02-29T04:20:15.253Z,22.03
2024-02-29T04:22:47.190Z,18.67
2024-02-29T04:25:17.818Z,19.70
2024-02-29T04:27:46.668Z,20.43
2024-02-29T04:30:16.475Z,20.00
2024-02-29T04:32:45.492Z,23.20
2024-02-29T04:35:14.664Z,21.43
2024-02-29T04:37:45.689Z,20.60
2024-02-29T04:40:16.833Z,23.67
2024-02-29T04:42:49.495Z,23.20
2024-02-29T04:45:18.264Z,22.50
2024-02-29T04:47:49.603Z,22.07
2024-02-29T04:50:19.476Z,24.00
2024-02-29T04:55:31.715Z,19.03
2024-02-29T04:58:02.053Z,19.30
2024-02-29T05:00:33.376Z,18.33
2024-02-29T05:03:02.507Z,19.80
2024-02-29T05:05:32.567Z,22.10
2024-02-29T05:08:01.810Z,21.90
2024-02-29T05:10:31.003Z,22.43
2024-02-29T05:12:59.760Z,21.10
2024-02-29T05:15:37.422Z,22.03
2024-02-29T05:18:07.322Z,22.67
2024-02-29T05:20:36.401Z,20.97
2024-02-29T05:23:06.984Z,20.47
2024-02-29T05:25:37.278Z,21.60
2024-02-29T05:28:07.080Z,24.93
2024-02-29T05:30:37.643Z,27.30
2024-02-29T05:33:09.004Z,22.33
2024-02-29T05:35:38.770Z,27.57
2024-02-29T05:38:10.215Z,26.23
2024-02-29T05:40:39.415Z,27.33
2024-02-29T05:43:08.375Z,26.63
2024-02-29T05:45:38.971Z,30.83
2024-02-29T05:48:08.768Z,26.03
2024-02-29T05:50:38.194Z,27.57
2024-02-29T05:53:07.389Z,29.13
2024-02-29T05:55:38.671Z,30.87
2024-02-29T05:58:07.805Z,31.47
2024-02-29T06:00:41.987Z,33.03
2024-02-29T06:03:11.033Z,31.47
2024-02-29T06:05:39.498Z,26.57
2024-02-29T06:08:09.019Z,27.83
2024-02-29T06:10:40.032Z,27.70
2024-02-29T06:13:09.131Z,31.53
2024-02-29T06:15:39.379Z,28.03
2024-02-29T06:18:08.554Z,32.23
2024-02-29T06:20:37.794Z,36.03
2024-02-29T06:23:10.386Z,33.27
2024-02-29T06:25:39.138Z,30.00
2024-02-29T06:28:08.519Z,27.77
2024-02-29T06:30:39.455Z,28.07
2024-02-29T06:33:08.382Z,26.50
2024-02-29T06:35:37.383Z,29.57
2024-02-29T06:38:06.646Z,24.93
2024-02-29T06:40:35.413Z,21.23
2024-02-29T06:43:04.862Z,24.63
2024-02-29T06:45:33.962Z,25.57
2024-02-29T06:48:07.530Z,17.70
2024-02-29T06:50:36.449Z,16.30
2024-02-29T06:53:05.910Z,16.80
2024-02-29T06:55:35.083Z,12.27
2024-02-29T06:58:05.188Z,14.50
2024-02-29T07:00:34.769Z,12.67
2024-02-29T07:03:05.986Z,13.93
2024-02-29T07:05:36.766Z,13.80
2024-02-29T07:08:04.898Z,18.13
2024-02-29T07:10:33.824Z,16.67
2024-02-29T07:13:02.774Z,17.47
2024-02-29T07:15:35.196Z,12.93
2024-02-29T07:18:06.069Z,13.27
2024-02-29T07:20:35.241Z,12.83
2024-02-29T07:23:04.717Z,15.80
2024-02-29T07:25:33.790Z,13.50
2024-02-29T07:28:04.420Z,18.10
2024-02-29T07:30:33.341Z,19.20
2024-02-29T07:33:02.758Z,15.93
2024-02-29T07:35:43.910Z,17.17
2024-02-29T07:38:13.404Z,16.17
2024-02-29T07:40:42.540Z,25.57
2024-02-29T07:43:14.288Z,48.73
2024-02-29T07:45:43.412Z,15.97
2024-02-29T07:48:12.460Z,20.80
2024-02-29T07:50:42.617Z,32.53
2024-02-29T07:53:13.878Z,36.17
2024-02-29T07:55:42.728Z,53.90
2024-02-29T07:58:14.290Z,30.17
2024-02-29T08:00:43.139Z,27.20
2024-02-29T08:03:13.241Z,44.53
2024-02-29T08:05:43.589Z,51.20
2024-02-29T08:08:13.603Z,69.03
2024-02-29T08:10:42.564Z,88.83
2024-02-29T08:13:12.175Z,96.03
2024-02-29T08:15:41.032Z,102.80
2024-02-29T08:18:12.074Z,62.87
2024-02-29T08:20:41.093Z,78.17
2024-02-29T08:23:12.596Z,48.33
2024-02-29T08:25:43.739Z,58.17
2024-02-29T08:28:12.748Z,50.70
2024-02-29T08:30:42.292Z,44.93
2024-02-29T08:33:14.066Z,27.70
2024-02-29T08:35:42.888Z,38.50
2024-02-29T08:38:17.910Z,44.63
2024-02-29T08:40:46.879Z,29.73
2024-02-29T08:43:16.038Z,40.07
2024-02-29T08:45:47.809Z,33.43
2024-02-29T08:48:18.994Z,28.57
2024-02-29T08:50:48.039Z,26.47
2024-02-29T08:53:18.760Z,31.67
2024-02-29T08:55:52.452Z,45.43
2024-02-29T08:58:21.981Z,26.20
2024-02-29T09:00:54.367Z,28.83
2024-02-29T09:03:24.983Z,31.30
2024-02-29T09:05:54.129Z,31.00
2024-02-29T09:08:27.785Z,30.63
2024-02-29T09:10:57.330Z,31.37
2024-02-29T09:13:30.980Z,30.27
2024-02-29T09:16:09.231Z,35.50
2024-02-29T09:18:38.261Z,35.37
2024-02-29T09:21:07.500Z,31.77
2024-02-29T09:23:39.292Z,35.80
2024-02-29T09:26:08.074Z,36.07
2024-02-29T09:28:37.212Z,37.23
2024-02-29T09:31:06.113Z,35.47
2024-02-29T09:33:35.577Z,34.00
2024-02-29T09:36:11.474Z,37.20
2024-02-29T09:38:42.080Z,39.90
2024-02-29T09:43:54.992Z,41.17
2024-02-29T09:46:25.243Z,38.37
2024-02-29T09:48:54.891Z,41.00
2024-02-29T09:51:24.073Z,50.23
2024-02-29T09:53:55.667Z,39.83
2024-02-29T09:56:25.684Z,40.70
2024-02-29T09:58:57.748Z,41.80
2024-02-29T10:01:33.535Z,35.50
2024-02-29T10:04:04.549Z,37.50
2024-02-29T10:06:33.904Z,40.20
2024-02-29T10:09:04.500Z,35.50
2024-02-29T10:11:32.983Z,37.93
2024-02-29T10:14:03.491Z,50.67
2024-02-29T10:16:33.629Z,35.80
2024-02-29T10:19:03.741Z,39.33
2024-02-29T10:21:35.109Z,37.93
2024-02-29T10:24:06.433Z,38.60
2024-02-29T10:26:35.214Z,38.07
2024-02-29T10:29:05.166Z,32.47
2024-02-29T10:31:34.585Z,40.63
2024-02-29T10:34:05.770Z,39.47
2024-02-29T10:36:35.005Z,39.73
2024-02-29T10:39:05.628Z,44.00
2024-02-29T10:41:35.141Z,43.30
2024-02-29T10:44:05.826Z,38.97
2024-02-29T10:46:35.154Z,40.40
2024-02-29T10:49:05.760Z,35.83
2024-02-29T10:51:42.847Z,41.13
2024-02-29T10:54:17.450Z,44.33
2024-02-29T10:56:49.317Z,41.27
2024-02-29T10:59:20.004Z,41.10
2024-02-29T11:01:49.397Z,43.13
2024-02-29T11:04:17.592Z,40.30
2024-02-29T11:06:50.482Z,44.33
2024-02-29T11:09:24.716Z,41.60
2024-02-29T11:12:10.266Z,38.77
2024-02-29T11:14:39.568Z,43.80
2024-02-29T11:17:07.656Z,40.63
2024-02-29T11:19:47.027Z,37.70
2024-02-29T11:22:22.962Z,37.33
2024-02-29T11:25:02.131Z,41.33
2024-02-29T11:27:43.943Z,38.67
2024-02-29T11:30:22.593Z,43.70
2024-02-29T11:32:54.456Z,37.30
2024-02-29T11:35:23.592Z,41.53
2024-02-29T11:37:54.566Z,42.30
2024-02-29T11:40:25.943Z,40.07
2024-02-29T11:43:01.168Z,42.07
2024-02-29T11:45:37.669Z,39.93
2024-02-29T11:48:07.098Z,44.03
2024-02-29T11:50:36.299Z,41.03
2024-02-29T11:53:06.083Z,37.93
2024-02-29T11:55:47.810Z,41.30
2024-02-29T11:58:22.946Z,44.90
2024-02-29T12:00:55.047Z,40.17
2024-02-29T12:03:25.700Z,38.30
2024-02-29T12:05:54.867Z,39.97
2024-02-29T12:08:36.878Z,36.30
2024-02-29T12:11:07.512Z,35.90
2024-02-29T12:13:36.505Z,39.97
2024-02-29T12:16:06.084Z,38.17
2024-02-29T12:18:38.394Z,33.77
2024-02-29T12:21:09.650Z,34.93
2024-02-29T12:23:38.306Z,33.50
2024-02-29T12:26:23.061Z,32.70
2024-02-29T12:28:55.024Z,34.87
2024-02-29T12:31:24.637Z,39.77
2024-02-29T12:33:55.158Z,34.03
2024-02-29T12:36:25.591Z,36.53
2024-02-29T12:38:57.700Z,33.83
2024-02-29T12:41:27.951Z,35.17
2024-02-29T12:43:58.276Z,31.00
2024-02-29T12:46:30.727Z,33.17
2024-02-29T12:49:00.031Z,35.40
2024-02-29T12:51:28.923Z,34.07
2024-02-29T12:53:58.261Z,32.80
2024-02-29T12:56:33.031Z,36.90
2024-02-29T12:59:02.390Z,33.70
2024-02-29T13:01:36.034Z,36.83
2024-02-29T13:04:07.593Z,36.27
2024-02-29T13:06:38.905Z,33.37
2024-02-29T13:09:08.458Z,34.53
2024-02-29T13:11:38.762Z,35.07
2024-02-29T13:14:07.880Z,34.70
2024-02-29T13:16:36.773Z,34.37
2024-02-29T13:19:05.868Z,31.60
2024-02-29T13:21:37.195Z,32.93
2024-02-29T13:24:07.045Z,40.20
2024-02-29T13:26:36.332Z,32.20
2024-02-29T13:29:06.588Z,34.47
2024-02-29T13:31:35.666Z,34.23
2024-02-29T13:34:04.944Z,34.80
2024-02-29T13:36:34.702Z,35.50
2024-02-29T13:39:03.986Z,38.10
2024-02-29T13:41:33.115Z,32.70
2024-02-29T13:44:03.475Z,32.43
2024-02-29T13:46:35.418Z,37.10
2024-02-29T13:49:20.811Z,33.93
2024-02-29T13:51:54.835Z,32.70
2024-02-29T13:54:23.912Z,30.83
2024-02-29T13:56:54.427Z,31.43
2024-02-29T13:59:23.391Z,34.10
2024-02-29T14:02:06.626Z,34.03
2024-02-29T14:04:38.879Z,33.40
2024-02-29T14:07:10.544Z,32.20
2024-02-29T14:09:38.412Z,34.37
2024-02-29T14:12:08.433Z,34.00
2024-02-29T14:14:37.826Z,36.97
2024-02-29T14:17:15.599Z,34.00
2024-02-29T14:19:44.533Z,33.97
2024-02-29T14:22:15.495Z,35.90
2024-02-29T14:24:50.207Z,36.10
2024-02-29T14:27:22.059Z,31.10
2024-02-29T14:29:53.772Z,34.27
2024-02-29T14:32:29.320Z,37.70
2024-02-29T14:34:58.873Z,32.33
2024-02-29T14:37:26.831Z,39.17
2024-02-29T14:39:54.851Z,32.70
2024-02-29T14:42:23.193Z,34.10
2024-02-29T14:44:51.907Z,33.63
2024-02-29T14:47:22.563Z,35.47
2024-02-29T14:49:53.908Z,32.37
2024-02-29T14:52:23.811Z,33.90
2024-02-29T14:54:52.682Z,33.30
2024-02-29T14:57:21.503Z,32.03
2024-02-29T14:59:52.684Z,28.40
2024-02-29T15:02:21.866Z,32.47
2024-02-29T15:04:55.652Z,27.87
2024-02-29T15:07:25.002Z,28.70
2024-02-29T15:09:55.675Z,29.87
2024-02-29T15:12:26.790Z,24.47
2024-02-29T15:14:55.895Z,25.13
2024-02-29T15:17:25.101Z,25.83
2024-02-29T15:19:55.942Z,24.30
2024-02-29T15:22:26.002Z,25.40
2024-02-29T15:24:55.261Z,26.77
2024-02-29T15:27:24.258Z,25.73
2024-02-29T15:29:53.594Z,23.63
2024-02-29T15:32:24.667Z,24.63
2024-02-29T15:34:54.921Z,24.93
2024-02-29T15:37:24.064Z,23.00
2024-02-29T15:39:57.078Z,22.73
2024-02-29T15:42:26.002Z,22.47
2024-02-29T15:44:53.956Z,23.37
2024-02-29T15:47:23.283Z,23.53
2024-02-29T15:49:54.107Z,25.40
2024-02-29T15:52:24.590Z,23.67
2024-02-29T15:54:53.926Z,29.10
2024-02-29T15:57:22.919Z,25.17
2024-02-29T15:59:51.961Z,27.17
2024-02-29T16:02:21.349Z,22.10
2024-02-29T16:04:53.203Z,28.87
2024-02-29T16:07:23.456Z,29.47
2024-02-29T16:09:57.122Z,25.60
2024-02-29T16:12:25.104Z,27.03
2024-02-29T16:14:54.578Z,25.03
2024-02-29T16:17:22.638Z,24.67
2024-02-29T16:19:54.745Z,28.13
2024-02-29T16:22:23.803Z,24.23
2024-02-29T16:24:53.943Z,25.90
2024-02-29T16:27:22.784Z,29.40
2024-02-29T16:29:53.660Z,24.57
2024-02-29T16:32:22.793Z,26.83
2024-02-29T16:34:52.315Z,24.90
2024-02-29T16:37:21.629Z,26.77
2024-02-29T16:39:49.764Z,25.07
2024-02-29T16:42:20.509Z,22.03
2024-02-29T16:44:52.044Z,27.90
2024-02-29T16:47:23.730Z,24.93
2024-02-29T16:49:53.051Z,23.37
2024-02-29T16:52:22.286Z,24.70
2024-02-29T16:54:55.572Z,21.97
2024-02-29T16:57:28.950Z,22.53
2024-02-29T16:59:58.239Z,25.43
2024-02-29T17:02:27.340Z,23.77
2024-02-29T17:04:57.340Z,23.57
2024-02-29T17:07:26.529Z,22.83
2024-02-29T17:09:59.912Z,23.10
2024-02-29T17:12:33.541Z,19.27
2024-02-29T17:15:05.122Z,20.07
2024-02-29T17:17:34.043Z,27.47
2024-02-29T17:20:02.868Z,30.43
2024-02-29T17:22:32.696Z,27.27
2024-02-29T17:25:01.958Z,25.33
2024-02-29T17:27:32.956Z,23.03
2024-02-29T17:30:01.788Z,20.00
2024-02-29T17:32:31.002Z,21.60
2024-02-29T17:35:00.160Z,21.63
2024-02-29T17:37:34.176Z,21.83
2024-02-29T17:40:03.099Z,24.80
2024-02-29T17:42:35.943Z,23.50
2024-02-29T17:45:05.693Z,22.33
2024-02-29T17:47:34.954Z,21.90
2024-02-29T17:50:06.797Z,22.47
2024-02-29T17:52:37.771Z,19.60
2024-02-29T17:55:10.357Z,19.50
2024-02-29T17:57:40.836Z,15.90
2024-02-29T18:00:11.655Z,18.87
2024-02-29T18:02:41.141Z,17.93
2024-02-29T18:05:12.688Z,19.33
2024-02-29T18:07:51.101Z,19.50
2024-02-29T18:10:27.758Z,25.37
2024-02-29T18:13:01.410Z,24.73
2024-02-29T18:15:33.179Z,24.70
2024-02-29T18:18:04.285Z,23.10
2024-02-29T18:20:33.521Z,25.87
2024-02-29T18:23:04.754Z,25.97
2024-02-29T18:25:32.379Z,26.53
2024-02-29T18:28:01.837Z,25.80
2024-02-29T18:30:32.402Z,27.43
2024-02-29T18:33:01.506Z,29.13
2024-02-29T18:35:30.822Z,32.60
2024-02-29T18:38:02.220Z,29.80
2024-02-29T18:40:34.450Z,32.23
2024-02-29T18:43:06.050Z,29.57
2024-02-29T18:45:34.913Z,30.53
2024-02-29T18:48:04.070Z,29.33
2024-02-29T18:50:35.383Z,35.43
2024-02-29T18:53:05.343Z,32.47
2024-02-29T18:55:35.214Z,28.37
2024-02-29T18:58:05.830Z,26.53
2024-02-29T19:00:35.042Z,30.50
2024-02-29T19:03:04.345Z,32.67
2024-02-29T19:05:33.510Z,32.13
2024-02-29T19:08:06.336Z,30.70
2024-02-29T19:10:35.643Z,32.83
2024-02-29T19:13:06.332Z,33.03
2024-02-29T19:15:35.754Z,31.60
2024-02-29T19:18:05.289Z,32.03
2024-02-29T19:20:34.282Z,31.17
2024-02-29T19:23:03.789Z,37.27
2024-02-29T19:25:33.027Z,32.97
2024-02-29T19:28:04.236Z,35.20
2024-02-29T19:30:34.538Z,33.57
2024-02-29T19:33:03.294Z,33.40
2024-02-29T19:35:34.356Z,31.07
2024-02-29T19:38:06.065Z,33.27
2024-02-29T19:40:37.607Z,32.97
2024-02-29T19:43:07.046Z,32.60
2024-02-29T19:45:38.388Z,32.47
2024-02-29T19:48:08.220Z,32.93
2024-02-29T19:50:37.509Z,31.03
2024-02-29T19:53:07.715Z,38.57
2024-02-29T19:55:36.340Z,32.50
2024-02-29T19:58:10.020Z,30.30
2024-02-29T20:00:47.251Z,31.67
2024-02-29T20:03:17.810Z,29.70
2024-02-29T20:05:49.352Z,32.97
2024-02-29T20:08:17.333Z,31.37
2024-02-29T20:10:51.221Z,33.80
2024-02-29T20:13:22.530Z,32.33
2024-02-29T20:15:54.874Z,33.77
2024-02-29T20:18:30.810Z,32.40
2024-02-29T20:21:04.206Z,33.57
2024-02-29T20:23:38.238Z,31.97
2024-02-29T20:26:06.353Z,31.43
2024-02-29T20:28:35.384Z,35.23
2024-02-29T20:31:13.505Z,31.33
2024-02-29T20:33:45.398Z,32.00
2024-02-29T20:36:16.054Z,32.10
2024-02-29T20:38:46.731Z,30.10
2024-02-29T20:41:16.126Z,28.77
2024-02-29T20:43:53.074Z,26.63
2024-02-29T20:46:24.934Z,24.93
2024-02-29T20:48:53.941Z,24.43
2024-02-29T20:51:24.614Z,23.93
2024-02-29T20:53:54.030Z,23.57
2024-02-29T20:56:23.437Z,25.03
2024-02-29T20:58:55.944Z,26.23
2024-02-29T21:01:26.257Z,21.70
2024-02-29T21:03:58.408Z,20.93
2024-02-29T21:06:27.951Z,24.47
2024-02-29T21:08:57.246Z,25.13
2024-02-29T21:11:28.664Z,25.37
2024-02-29T21:13:57.971Z,24.40
2024-02-29T21:16:28.463Z,25.30
2024-02-29T21:18:57.607Z,25.03
2024-02-29T21:21:26.567Z,25.67
2024-02-29T21:23:55.718Z,28.73
2024-02-29T21:26:24.986Z,26.20
2024-02-29T21:28:52.992Z,27.30
2024-02-29T21:31:22.240Z,27.63
2024-02-29T21:33:53.863Z,32.80
2024-02-29T21:36:22.208Z,29.03
2024-02-29T21:38:53.612Z,29.97
2024-02-29T21:41:23.708Z,31.27
2024-02-29T21:43:53.074Z,32.77
2024-02-29T21:46:23.632Z,27.67
2024-02-29T21:48:54.046Z,31.90
2024-02-29T21:51:23.429Z,31.47
2024-02-29T21:53:52.428Z,34.30
2024-02-29T21:56:21.174Z,38.33
2024-02-29T21:58:50.144Z,36.77
2024-02-29T22:01:19.143Z,37.97
2024-02-29T22:03:47.920Z,37.43
2024-02-29T22:06:18.648Z,37.67
2024-02-29T22:08:47.722Z,40.43
2024-02-29T22:11:17.103Z,35.03
2024-02-29T22:13:46.021Z,38.30
2024-02-29T22:16:17.843Z,39.60
2024-02-29T22:18:47.097Z,39.00
2024-02-29T22:21:15.877Z,35.60
2024-02-29T22:23:46.259Z,34.73
2024-02-29T22:26:15.640Z,32.70
2024-02-29T22:28:46.719Z,31.60
2024-02-29T22:31:14.486Z,36.07
2024-02-29T22:33:43.509Z,34.93
2024-02-29T22:36:13.467Z,38.20
2024-02-29T22:38:44.413Z,32.30
2024-02-29T22:41:18.824Z,32.73
2024-02-29T22:43:52.604Z,28.00
2024-02-29T22:46:21.685Z,31.67
2024-02-29T22:48:51.049Z,30.40
2024-02-29T22:51:20.323Z,28.03
2024-02-29T22:53:49.629Z,31.40
2024-02-29T22:56:32.054Z,32.67
2024-02-29T22:59:01.654Z,30.10
2024-02-29T23:01:34.841Z,28.50
2024-02-29T23:04:06.779Z,31.47
2024-02-29T23:06:36.415Z,31.27
2024-02-29T23:09:05.835Z,30.13
2024-02-29T23:11:36.649Z,28.47
2024-02-29T23:14:05.510Z,31.77
2024-02-29T23:16:34.621Z,27.97
2024-02-29T23:19:03.680Z,31.33
2024-02-29T23:21:33.104Z,32.30
2024-02-29T23:24:02.435Z,33.90
2024-02-29T23:26:33.728Z,35.83
2024-02-29T23:29:05.108Z,28.97
2024-02-29T23:31:33.974Z,31.70
2024-02-29T23:34:03.600Z,31.57
2024-02-29T23:36:32.852Z,32.13
2024-02-29T23:39:02.105Z,31.73
2024-02-29T23:41:31.427Z,32.73
2024-02-29T23:44:00.553Z,32.80
2024-02-29T23:46:33.035Z,30.67
2024-02-29T23:49:10.258Z,32.37
2024-02-29T23:51:39.167Z,30.30
2024-02-29T23:54:08.071Z,32.93
2024-02-29T23:56:37.260Z,34.80
2024-02-29T23:59:08.944Z,35.93
